sensor_id;sensor_type;location;lat;lon;timestamp;pressure;altitude;pressure_sealevel;temperature;humidity
12051;BME280;6086;43.546;26.474;2022-08-25T13:11:31;98628.81;;;33.14;35.11
12051;BME280;6086;43.546;26.474;2022-08-25T13:14:06;98633.59;;;32.98;35.39
12051;BME280;6086;43.546;26.474;2022-08-25T13:16:37;98632.91;;;32.86;35.46
12051;BME280;6086;43.546;26.474;2022-08-25T13:19:05;98630.06;;;32.70;36.17
12051;BME280;6086;43.546;26.474;2022-08-25T13:21:35;98626.28;;;32.75;36.54
12051;BME280;6086;43.546;26.474;2022-08-25T13:24:13;98637.38;;;32.75;36.65
12051;BME280;6086;43.546;26.474;2022-08-25T13:26:47;98631.97;;;32.66;36.28
12051;BME280;6086;43.546;26.474;2022-08-25T13:29:20;98631.63;;;32.68;36.55
12051;BME280;6086;43.546;26.474;2022-08-25T13:31:56;98639.22;;;32.71;36.41
12051;BME280;6086;43.546;26.474;2022-08-25T13:34:27;98631.84;;;32.75;36.62
12051;BME280;6086;43.546;26.474;2022-08-25T13:36:55;98628.47;;;32.69;37.37
12051;BME280;6086;43.546;26.474;2022-08-25T13:39:39;98619.47;;;32.72;36.09
12051;BME280;6086;43.546;26.474;2022-08-25T13:42:13;98624.75;;;32.77;37.04
12051;BME280;6086;43.546;26.474;2022-08-25T13:44:40;98615.53;;;32.73;36.11
12051;BME280;6086;43.546;26.474;2022-08-25T13:47:10;98619.72;;;32.67;35.95
12051;BME280;6086;43.546;26.474;2022-08-25T13:49:39;98616.41;;;32.62;36.36
12051;BME280;6086;43.546;26.474;2022-08-25T13:52:07;98616.31;;;32.58;36.63
12051;BME280;6086;43.546;26.474;2022-08-25T13:54:42;98609.25;;;32.61;36.74
12051;BME280;6086;43.546;26.474;2022-08-25T13:57:15;98609.25;;;32.61;36.63
12051;BME280;6086;43.546;26.474;2022-08-25T13:59:48;98607.00;;;32.66;36.00
12051;BME280;6086;43.546;26.474;2022-08-25T14:02:40;98603.16;;;32.55;36.12
12051;BME280;6086;43.546;26.474;2022-08-25T14:05:08;98598.78;;;32.54;36.17
12051;BME280;6086;43.546;26.474;2022-08-25T14:07:35;98588.84;;;32.53;36.51
12051;BME280;6086;43.546;26.474;2022-08-25T14:10:06;98580.69;;;32.45;36.76
12051;BME280;6086;43.546;26.474;2022-08-25T14:12:38;98578.66;;;32.57;36.27
12051;BME280;6086;43.546;26.474;2022-08-25T14:15:26;98581.75;;;32.56;35.53
12051;BME280;6086;43.546;26.474;2022-08-25T14:18:06;98586.09;;;32.53;35.50
12051;BME280;6086;43.546;26.474;2022-08-25T14:20:35;98587.50;;;32.47;35.23
12051;BME280;6086;43.546;26.474;2022-08-25T14:23:06;98580.59;;;32.26;35.60
12051;BME280;6086;43.546;26.474;2022-08-25T14:25:35;98587.13;;;32.33;35.79
12051;BME280;6086;43.546;26.474;2022-08-25T14:28:08;98587.50;;;32.32;35.90
12051;BME280;6086;43.546;26.474;2022-08-25T14:30:39;98592.50;;;32.26;35.13
12051;BME280;6086;43.546;26.474;2022-08-25T14:33:07;98591.47;;;32.19;35.46
12051;BME280;6086;43.546;26.474;2022-08-25T14:35:35;98592.28;;;32.19;35.25
12051;BME280;6086;43.546;26.474;2022-08-25T14:38:07;98604.88;;;32.17;35.42
12051;BME280;6086;43.546;26.474;2022-08-25T14:40:34;98596.66;;;32.20;35.33
12051;BME280;6086;43.546;26.474;2022-08-25T14:43:03;98594.22;;;32.19;34.64
12051;BME280;6086;43.546;26.474;2022-08-25T14:45:30;98592.63;;;32.18;34.54
12051;BME280;6086;43.546;26.474;2022-08-25T14:48:03;98595.53;;;32.21;34.67
12051;BME280;6086;43.546;26.474;2022-08-25T14:50:31;98601.72;;;32.30;34.86
12051;BME280;6086;43.546;26.474;2022-08-25T14:53:00;98595.91;;;32.35;33.45
12051;BME280;6086;43.546;26.474;2022-08-25T14:55:28;98596.25;;;32.34;34.32
12051;BME280;6086;43.546;26.474;2022-08-25T14:57:55;98584.88;;;32.39;34.46
12051;BME280;6086;43.546;26.474;2022-08-25T15:00:23;98599.38;;;32.48;33.39
12051;BME280;6086;43.546;26.474;2022-08-25T15:02:50;98581.13;;;32.47;32.56
12051;BME280;6086;43.546;26.474;2022-08-25T15:05:21;98586.59;;;32.43;32.79
12051;BME280;6086;43.546;26.474;2022-08-25T15:07:52;98589.94;;;32.49;32.71
12051;BME280;6086;43.546;26.474;2022-08-25T15:10:37;98592.41;;;32.54;33.13
12051;BME280;6086;43.546;26.474;2022-08-25T15:13:05;98595.09;;;32.50;32.51
12051;BME280;6086;43.546;26.474;2022-08-25T15:15:34;98592.31;;;32.50;33.22
12051;BME280;6086;43.546;26.474;2022-08-25T15:18:03;98606.47;;;32.45;32.92
12051;BME280;6086;43.546;26.474;2022-08-25T15:20:34;98591.97;;;32.36;33.28
12051;BME280;6086;43.546;26.474;2022-08-25T15:23:08;98598.69;;;32.35;32.75
12051;BME280;6086;43.546;26.474;2022-08-25T15:25:36;98603.59;;;32.26;33.34
12051;BME280;6086;43.546;26.474;2022-08-25T15:28:04;98603.72;;;32.18;32.41
12051;BME280;6086;43.546;26.474;2022-08-25T15:30:32;98605.84;;;32.09;32.30
12051;BME280;6086;43.546;26.474;2022-08-25T15:32:59;98604.13;;;32.04;32.57
12051;BME280;6086;43.546;26.474;2022-08-25T15:35:26;98607.06;;;31.96;32.30
12051;BME280;6086;43.546;26.474;2022-08-25T15:37:53;98605.25;;;31.88;32.64
12051;BME280;6086;43.546;26.474;2022-08-25T15:40:20;98604.78;;;31.86;32.69
12051;BME280;6086;43.546;26.474;2022-08-25T15:42:47;98606.66;;;31.82;32.54
12051;BME280;6086;43.546;26.474;2022-08-25T15:45:14;98600.91;;;31.75;32.07
12051;BME280;6086;43.546;26.474;2022-08-25T15:47:42;98604.06;;;31.73;31.92
12051;BME280;6086;43.546;26.474;2022-08-25T15:50:12;98608.78;;;31.61;31.73
12051;BME280;6086;43.546;26.474;2022-08-25T15:52:40;98607.53;;;31.58;31.82
12051;BME280;6086;43.546;26.474;2022-08-25T15:55:09;98603.94;;;31.58;32.47
12051;BME280;6086;43.546;26.474;2022-08-25T15:57:36;98605.25;;;31.48;32.95
12051;BME280;6086;43.546;26.474;2022-08-25T16:00:05;98599.59;;;31.45;32.77
12051;BME280;6086;43.546;26.474;2022-08-25T16:02:33;98602.16;;;31.38;33.57
12051;BME280;6086;43.546;26.474;2022-08-25T16:05:02;98602.97;;;31.26;33.70
12051;BME280;6086;43.546;26.474;2022-08-25T16:07:29;98592.16;;;31.21;34.34
12051;BME280;6086;43.546;26.474;2022-08-25T16:09:57;98585.81;;;31.21;33.82
12051;BME280;6086;43.546;26.474;2022-08-25T16:12:24;98587.19;;;31.15;34.78
12051;BME280;6086;43.546;26.474;2022-08-25T16:14:52;98589.47;;;31.13;35.07
12051;BME280;6086;43.546;26.474;2022-08-25T16:17:19;98583.16;;;31.12;34.71
12051;BME280;6086;43.546;26.474;2022-08-25T16:19:46;98575.66;;;31.13;34.99
12051;BME280;6086;43.546;26.474;2022-08-25T16:22:14;98568.72;;;31.07;35.18
12051;BME280;6086;43.546;26.474;2022-08-25T16:24:42;98576.25;;;31.06;35.65
12051;BME280;6086;43.546;26.474;2022-08-25T16:27:10;98571.03;;;31.05;35.53
12051;BME280;6086;43.546;26.474;2022-08-25T16:29:39;98572.47;;;30.99;35.86
12051;BME280;6086;43.546;26.474;2022-08-25T16:32:06;98577.97;;;30.87;35.97
12051;BME280;6086;43.546;26.474;2022-08-25T16:34:34;98578.34;;;30.85;35.54
12051;BME280;6086;43.546;26.474;2022-08-25T16:37:01;98576.84;;;30.76;36.48
12051;BME280;6086;43.546;26.474;2022-08-25T16:39:29;98565.44;;;30.65;36.99
12051;BME280;6086;43.546;26.474;2022-08-25T16:41:56;98582.13;;;30.57;36.94
12051;BME280;6086;43.546;26.474;2022-08-25T16:44:23;98582.44;;;30.55;37.12
12051;BME280;6086;43.546;26.474;2022-08-25T16:46:50;98587.28;;;30.46;36.94
12051;BME280;6086;43.546;26.474;2022-08-25T16:49:19;98575.06;;;30.35;37.95
12051;BME280;6086;43.546;26.474;2022-08-25T16:51:46;98588.44;;;30.33;36.99
12051;BME280;6086;43.546;26.474;2022-08-25T16:54:13;98581.84;;;30.26;37.89
12051;BME280;6086;43.546;26.474;2022-08-25T16:56:59;98582.41;;;30.19;38.11
12051;BME280;6086;43.546;26.474;2022-08-25T16:59:26;98585.28;;;30.11;38.52
12051;BME280;6086;43.546;26.474;2022-08-25T17:01:53;98585.66;;;30.01;38.34
12051;BME280;6086;43.546;26.474;2022-08-25T17:04:20;98588.84;;;29.91;39.42
12051;BME280;6086;43.546;26.474;2022-08-25T17:06:47;98589.28;;;29.81;39.74
12051;BME280;6086;43.546;26.474;2022-08-25T17:09:15;98587.06;;;29.74;39.85
12051;BME280;6086;43.546;26.474;2022-08-25T17:11:44;98586.00;;;29.67;40.93
12051;BME280;6086;43.546;26.474;2022-08-25T17:14:17;98587.69;;;29.59;40.85
12051;BME280;6086;43.546;26.474;2022-08-25T17:16:45;98584.03;;;29.47;41.30
12051;BME280;6086;43.546;26.474;2022-08-25T17:19:13;98579.72;;;29.38;41.56
12051;BME280;6086;43.546;26.474;2022-08-25T17:21:42;98576.84;;;29.34;42.50
12051;BME280;6086;43.546;26.474;2022-08-25T17:24:10;98579.47;;;29.31;42.74
12051;BME280;6086;43.546;26.474;2022-08-25T17:26:39;98570.75;;;29.20;43.19
12051;BME280;6086;43.546;26.474;2022-08-25T17:29:07;98571.91;;;29.19;43.55
12051;BME280;6086;43.546;26.474;2022-08-25T17:31:35;98579.25;;;29.15;44.40
12051;BME280;6086;43.546;26.474;2022-08-25T17:34:08;98565.66;;;29.10;45.24
12051;BME280;6086;43.546;26.474;2022-08-25T17:36:37;98576.41;;;29.03;45.57
12051;BME280;6086;43.546;26.474;2022-08-25T17:39:05;98567.72;;;28.93;46.05
12051;BME280;6086;43.546;26.474;2022-08-25T17:41:33;98574.88;;;28.85;46.59
12051;BME280;6086;43.546;26.474;2022-08-25T17:44:01;98573.09;;;28.81;47.77
12051;BME280;6086;43.546;26.474;2022-08-25T17:46:28;98569.75;;;28.75;47.70
12051;BME280;6086;43.546;26.474;2022-08-25T17:48:57;98579.81;;;28.71;47.74
12051;BME280;6086;43.546;26.474;2022-08-25T17:51:24;98578.72;;;28.64;49.41
12051;BME280;6086;43.546;26.474;2022-08-25T17:53:54;98577.31;;;28.58;51.36
12051;BME280;6086;43.546;26.474;2022-08-25T17:56:22;98580.06;;;28.49;52.96
12051;BME280;6086;43.546;26.474;2022-08-25T17:58:50;98595.19;;;28.43;55.79
12051;BME280;6086;43.546;26.474;2022-08-25T18:01:22;98576.09;;;28.38;58.05
12051;BME280;6086;43.546;26.474;2022-08-25T18:03:50;98587.59;;;28.32;61.41
12051;BME280;6086;43.546;26.474;2022-08-25T18:06:19;98582.59;;;28.25;61.26
12051;BME280;6086;43.546;26.474;2022-08-25T18:08:48;98589.09;;;28.21;62.62
12051;BME280;6086;43.546;26.474;2022-08-25T18:11:15;98590.41;;;28.15;62.11
12051;BME280;6086;43.546;26.474;2022-08-25T18:13:42;98602.06;;;28.12;62.49
12051;BME280;6086;43.546;26.474;2022-08-25T18:16:10;98595.44;;;28.04;61.87
12051;BME280;6086;43.546;26.474;2022-08-25T18:18:38;98596.59;;;27.95;62.70
12051;BME280;6086;43.546;26.474;2022-08-25T18:21:10;98604.88;;;27.86;62.16
12051;BME280;6086;43.546;26.474;2022-08-25T18:23:56;98606.00;;;27.85;61.77
12051;BME280;6086;43.546;26.474;2022-08-25T18:26:23;98604.38;;;27.76;62.99
12051;BME280;6086;43.546;26.474;2022-08-25T18:28:50;98602.91;;;27.70;66.03
12051;BME280;6086;43.546;26.474;2022-08-25T18:31:17;98599.81;;;27.54;66.27
12051;BME280;6086;43.546;26.474;2022-08-25T18:33:44;98607.78;;;27.56;66.89
12051;BME280;6086;43.546;26.474;2022-08-25T18:36:11;98596.44;;;27.49;68.58
12051;BME280;6086;43.546;26.474;2022-08-25T18:38:39;98606.78;;;27.43;68.73
12051;BME280;6086;43.546;26.474;2022-08-25T18:41:26;98608.59;;;27.39;71.62
12051;BME280;6086;43.546;26.474;2022-08-25T18:43:58;98602.59;;;27.29;72.65
12051;BME280;6086;43.546;26.474;2022-08-25T18:46:25;98602.19;;;27.05;73.22
12051;BME280;6086;43.546;26.474;2022-08-25T18:48:52;98603.63;;;26.94;72.33
12051;BME280;6086;43.546;26.474;2022-08-25T18:51:20;98607.34;;;26.81;73.79
12051;BME280;6086;43.546;26.474;2022-08-25T18:53:47;98600.00;;;26.68;75.98
12051;BME280;6086;43.546;26.474;2022-08-25T18:56:14;98608.06;;;26.56;76.29
12051;BME280;6086;43.546;26.474;2022-08-25T18:58:43;98606.34;;;26.46;74.89
12051;BME280;6086;43.546;26.474;2022-08-25T19:01:11;98612.31;;;26.40;75.90
12051;BME280;6086;43.546;26.474;2022-08-25T19:04:09;98606.59;;;26.28;75.68
12051;BME280;6086;43.546;26.474;2022-08-25T19:06:41;98607.09;;;26.30;76.95
12051;BME280;6086;43.546;26.474;2022-08-25T19:09:09;98606.28;;;26.29;78.22
12051;BME280;6086;43.546;26.474;2022-08-25T19:11:37;98614.88;;;26.36;80.71
12051;BME280;6086;43.546;26.474;2022-08-25T19:14:05;98609.53;;;26.31;80.50
12051;BME280;6086;43.546;26.474;2022-08-25T19:16:38;98607.56;;;26.23;79.44
12051;BME280;6086;43.546;26.474;2022-08-25T19:19:06;98610.31;;;26.32;79.75
12051;BME280;6086;43.546;26.474;2022-08-25T19:21:34;98614.50;;;26.29;81.19
12051;BME280;6086;43.546;26.474;2022-08-25T19:24:04;98620.34;;;26.28;78.99
12051;BME280;6086;43.546;26.474;2022-08-25T19:26:32;98616.47;;;26.29;80.40
12051;BME280;6086;43.546;26.474;2022-08-25T19:29:00;98622.94;;;26.33;80.20
12051;BME280;6086;43.546;26.474;2022-08-25T19:31:29;98625.19;;;26.31;76.89
12051;BME280;6086;43.546;26.474;2022-08-25T19:33:57;98634.84;;;26.28;77.41
12051;BME280;6086;43.546;26.474;2022-08-25T19:36:27;98635.19;;;26.27;77.96
12051;BME280;6086;43.546;26.474;2022-08-25T19:38:55;98637.59;;;26.28;79.04
12051;BME280;6086;43.546;26.474;2022-08-25T19:41:25;98638.72;;;26.27;79.21
12051;BME280;6086;43.546;26.474;2022-08-25T19:43:53;98647.91;;;26.23;79.43
12051;BME280;6086;43.546;26.474;2022-08-25T19:46:20;98652.91;;;26.21;84.92
12051;BME280;6086;43.546;26.474;2022-08-25T19:48:48;98648.00;;;26.09;85.71
12051;BME280;6086;43.546;26.474;2022-08-25T19:51:15;98651.47;;;26.01;87.87
12051;BME280;6086;43.546;26.474;2022-08-25T19:53:42;98656.78;;;25.98;88.67
12051;BME280;6086;43.546;26.474;2022-08-25T19:56:09;98661.16;;;25.99;90.86
12051;BME280;6086;43.546;26.474;2022-08-25T19:58:36;98657.91;;;25.97;91.92
12051;BME280;6086;43.546;26.474;2022-08-25T20:01:03;98657.44;;;25.81;92.07
12051;BME280;6086;43.546;26.474;2022-08-25T20:03:31;98653.94;;;25.67;93.19
12051;BME280;6086;43.546;26.474;2022-08-25T20:06:00;98652.16;;;25.50;98.72
12051;BME280;6086;43.546;26.474;2022-08-25T20:08:26;98662.78;;;25.29;100.00
12051;BME280;6086;43.546;26.474;2022-08-25T20:10:53;98652.75;;;25.25;100.00
12051;BME280;6086;43.546;26.474;2022-08-25T20:13:20;98649.06;;;25.16;100.00
12051;BME280;6086;43.546;26.474;2022-08-25T20:15:47;98639.75;;;25.03;100.00
12051;BME280;6086;43.546;26.474;2022-08-25T20:18:14;98650.00;;;24.98;100.00
12051;BME280;6086;43.546;26.474;2022-08-25T20:20:43;98637.94;;;24.99;100.00
12051;BME280;6086;43.546;26.474;2022-08-25T20:23:15;98632.38;;;24.90;100.00
12051;BME280;6086;43.546;26.474;2022-08-25T20:25:59;98619.50;;;24.77;100.00
12051;BME280;6086;43.546;26.474;2022-08-25T20:28:26;98625.16;;;24.67;100.00
12051;BME280;6086;43.546;26.474;2022-08-25T20:30:53;98626.41;;;24.61;100.00
12051;BME280;6086;43.546;26.474;2022-08-25T20:33:20;98618.38;;;24.51;100.00
12051;BME280;6086;43.546;26.474;2022-08-25T20:35:47;98617.22;;;24.39;100.00
12051;BME280;6086;43.546;26.474;2022-08-25T20:38:16;98614.28;;;24.35;100.00
12051;BME280;6086;43.546;26.474;2022-08-25T20:40:43;98607.56;;;24.28;100.00
12051;BME280;6086;43.546;26.474;2022-08-25T20:43:10;98603.31;;;24.22;100.00
12051;BME280;6086;43.546;26.474;2022-08-25T20:45:37;98598.34;;;24.10;100.00
12051;BME280;6086;43.546;26.474;2022-08-25T20:48:04;98597.81;;;24.08;100.00
12051;BME280;6086;43.546;26.474;2022-08-25T20:50:31;98597.31;;;24.06;100.00
12051;BME280;6086;43.546;26.474;2022-08-25T20:52:59;98589.13;;;24.06;100.00
12051;BME280;6086;43.546;26.474;2022-08-25T20:55:27;98600.44;;;24.00;100.00
12051;BME280;6086;43.546;26.474;2022-08-25T20:57:54;98602.38;;;23.99;100.00
12051;BME280;6086;43.546;26.474;2022-08-25T21:00:21;98599.03;;;24.02;97.46
12051;BME280;6086;43.546;26.474;2022-08-25T21:02:48;98597.13;;;24.03;93.72
12051;BME280;6086;43.546;26.474;2022-08-25T21:05:16;98604.31;;;24.12;90.83
12051;BME280;6086;43.546;26.474;2022-08-25T21:07:44;98597.63;;;24.18;87.73
12051;BME280;6086;43.546;26.474;2022-08-25T21:10:10;98604.66;;;24.24;86.29
12051;BME280;6086;43.546;26.474;2022-08-25T21:12:39;98602.50;;;24.35;81.29
12051;BME280;6086;43.546;26.474;2022-08-25T21:15:07;98607.41;;;24.38;76.13
12051;BME280;6086;43.546;26.474;2022-08-25T21:17:35;98617.25;;;24.52;73.75
12051;BME280;6086;43.546;26.474;2022-08-25T21:20:03;98614.03;;;24.64;72.69
12051;BME280;6086;43.546;26.474;2022-08-25T21:22:30;98617.16;;;24.71;70.46
12051;BME280;6086;43.546;26.474;2022-08-25T21:24:58;98613.13;;;24.82;70.05
12051;BME280;6086;43.546;26.474;2022-08-25T21:27:25;98618.16;;;24.88;69.67
12051;BME280;6086;43.546;26.474;2022-08-25T21:29:54;98621.13;;;24.92;73.15
12051;BME280;6086;43.546;26.474;2022-08-25T21:32:22;98617.66;;;25.00;73.90
12051;BME280;6086;43.546;26.474;2022-08-25T21:34:51;98621.69;;;25.02;73.78
12051;BME280;6086;43.546;26.474;2022-08-25T21:37:18;98616.72;;;25.04;74.05
12051;BME280;6086;43.546;26.474;2022-08-25T21:39:45;98611.56;;;25.03;73.30
12051;BME280;6086;43.546;26.474;2022-08-25T21:42:12;98615.63;;;25.05;72.73
12051;BME280;6086;43.546;26.474;2022-08-25T21:44:38;98615.47;;;25.10;73.35
12051;BME280;6086;43.546;26.474;2022-08-25T21:47:07;98615.09;;;24.90;72.66
12051;BME280;6086;43.546;26.474;2022-08-25T21:49:34;98620.50;;;24.81;75.28
12051;BME280;6086;43.546;26.474;2022-08-25T21:52:01;98624.06;;;24.82;76.06
12051;BME280;6086;43.546;26.474;2022-08-25T21:54:28;98618.97;;;24.75;78.79
12051;BME280;6086;43.546;26.474;2022-08-25T21:57:00;98623.34;;;24.76;78.04
12051;BME280;6086;43.546;26.474;2022-08-25T21:59:29;98627.31;;;24.70;78.76
12051;BME280;6086;43.546;26.474;2022-08-25T22:01:57;98626.28;;;24.66;80.63
12051;BME280;6086;43.546;26.474;2022-08-25T22:04:27;98622.25;;;24.64;79.41
12051;BME280;6086;43.546;26.474;2022-08-25T22:06:54;98610.25;;;24.60;80.61
12051;BME280;6086;43.546;26.474;2022-08-25T22:09:23;98615.03;;;24.54;83.65
12051;BME280;6086;43.546;26.474;2022-08-25T22:11:50;98624.06;;;24.55;83.75
12051;BME280;6086;43.546;26.474;2022-08-25T22:14:18;98619.28;;;24.47;83.49
12051;BME280;6086;43.546;26.474;2022-08-25T22:16:45;98611.22;;;24.37;84.60
12051;BME280;6086;43.546;26.474;2022-08-25T22:19:13;98610.50;;;24.31;85.30
12051;BME280;6086;43.546;26.474;2022-08-25T22:21:42;98623.69;;;24.29;86.19
12051;BME280;6086;43.546;26.474;2022-08-25T22:24:10;98619.13;;;24.25;85.98
12051;BME280;6086;43.546;26.474;2022-08-25T22:26:38;98617.00;;;24.22;86.45
12051;BME280;6086;43.546;26.474;2022-08-25T22:29:05;98619.31;;;24.15;88.66
12051;BME280;6086;43.546;26.474;2022-08-25T22:31:32;98616.59;;;24.15;88.60
12051;BME280;6086;43.546;26.474;2022-08-25T22:34:00;98615.66;;;24.06;87.51
12051;BME280;6086;43.546;26.474;2022-08-25T22:36:29;98609.13;;;24.02;88.79
12051;BME280;6086;43.546;26.474;2022-08-25T22:38:58;98609.84;;;23.94;87.96
12051;BME280;6086;43.546;26.474;2022-08-25T22:41:27;98604.19;;;23.90;87.93
12051;BME280;6086;43.546;26.474;2022-08-25T22:43:55;98593.06;;;23.82;92.76
12051;BME280;6086;43.546;26.474;2022-08-25T22:46:23;98593.97;;;23.77;93.62
12051;BME280;6086;43.546;26.474;2022-08-25T22:48:51;98592.72;;;23.70;94.21
12051;BME280;6086;43.546;26.474;2022-08-25T22:51:21;98590.97;;;23.60;95.40
12051;BME280;6086;43.546;26.474;2022-08-25T22:53:49;98593.41;;;23.62;99.70
12051;BME280;6086;43.546;26.474;2022-08-25T22:56:26;98594.53;;;23.61;100.00
12051;BME280;6086;43.546;26.474;2022-08-25T22:58:55;98588.84;;;23.57;100.00
12051;BME280;6086;43.546;26.474;2022-08-25T23:01:23;98582.66;;;23.52;100.00
12051;BME280;6086;43.546;26.474;2022-08-25T23:03:50;98576.34;;;23.51;95.23
12051;BME280;6086;43.546;26.474;2022-08-25T23:06:21;98581.19;;;23.41;94.91
12051;BME280;6086;43.546;26.474;2022-08-25T23:08:49;98580.59;;;23.44;86.44
12051;BME280;6086;43.546;26.474;2022-08-25T23:11:19;98573.84;;;23.55;84.99
12051;BME280;6086;43.546;26.474;2022-08-25T23:13:52;98575.09;;;23.62;92.49
12051;BME280;6086;43.546;26.474;2022-08-25T23:16:20;98569.09;;;23.60;96.70
12051;BME280;6086;43.546;26.474;2022-08-25T23:18:47;98568.97;;;23.52;97.31
12051;BME280;6086;43.546;26.474;2022-08-25T23:21:14;98571.94;;;23.55;100.00
12051;BME280;6086;43.546;26.474;2022-08-25T23:23:58;98577.47;;;23.50;100.00
12051;BME280;6086;43.546;26.474;2022-08-25T23:26:26;98576.22;;;23.43;100.00
12051;BME280;6086;43.546;26.474;2022-08-25T23:28:53;98576.16;;;23.29;100.00
12051;BME280;6086;43.546;26.474;2022-08-25T23:31:20;98581.19;;;23.22;100.00
12051;BME280;6086;43.546;26.474;2022-08-25T23:33:47;98575.84;;;23.12;100.00
12051;BME280;6086;43.546;26.474;2022-08-25T23:36:15;98574.88;;;23.03;100.00
12051;BME280;6086;43.546;26.474;2022-08-25T23:38:45;98576.94;;;22.93;100.00
12051;BME280;6086;43.546;26.474;2022-08-25T23:41:16;98568.06;;;22.82;100.00
12051;BME280;6086;43.546;26.474;2022-08-25T23:43:46;98559.28;;;22.67;100.00
12051;BME280;6086;43.546;26.474;2022-08-25T23:46:14;98565.91;;;22.61;100.00
12051;BME280;6086;43.546;26.474;2022-08-25T23:48:42;98561.84;;;22.58;100.00
12051;BME280;6086;43.546;26.474;2022-08-25T23:51:09;98561.69;;;22.50;100.00
12051;BME280;6086;43.546;26.474;2022-08-25T23:53:37;98562.63;;;22.40;100.00
12051;BME280;6086;43.546;26.474;2022-08-25T23:56:04;98559.25;;;22.48;100.00
12051;BME280;6086;43.546;26.474;2022-08-25T23:58:32;98558.72;;;22.46;100.00
